Terminal Aerodrome Forecast
Issued by NWS

Home | Current Version | Previous Version | Text Only | Print | Product List | Glossary On
Versions: 1 2 3 4 5 6 7 8 9 10 11 12 13 14 15 16 17 18 19 20 21 22 23 24 25 26 27
531
FTUS46 KEKA 060552
TAFCEC
TAF
KCEC 060552Z 0606/0706 16010KT 6SM -RA BKN035 OVC050
      TEMPO 0606/0609 4SM -RA BR BKN025 OVC050
     FM061000 13005KT 6SM BR SCT025 BKN040 OVC250
     FM061600 13004KT 6SM HZ BKN040 BKN250
     FM062100 22003KT P6SM SCT050 BKN120 BKN200
     FM070100 VRB03KT P6SM SCT050 BKN080=

USA.gov is the U.S. government's official web portal to all federal, state and local government web resources and services.